sensor_id;sensor_type;location;lat;lon;timestamp;temperature;humidity
40816;DHT22;26535;48.788;9.214;2022-10-22T05:02:27;13.90;99.90
40816;DHT22;26535;48.788;9.214;2022-10-22T05:04:53;13.80;99.90
40816;DHT22;26535;48.788;9.214;2022-10-22T05:07:19;13.80;99.90
40816;DHT22;26535;48.788;9.214;2022-10-22T05:09:45;13.80;99.90
40816;DHT22;26535;48.788;9.214;2022-10-22T05:12:10;13.70;99.90
40816;DHT22;26535;48.788;9.214;2022-10-22T05:14:36;13.70;99.90
40816;DHT22;26535;48.788;9.214;2022-10-22T05:17:02;13.60;99.90
40816;DHT22;26535;48.788;9.214;2022-10-22T05:19:29;13.80;99.90
40816;DHT22;26535;48.788;9.214;2022-10-22T05:21:57;13.80;99.90
40816;DHT22;26535;48.788;9.214;2022-10-22T05:24:24;13.80;99.90
40816;DHT22;26535;48.788;9.214;2022-10-22T05:26:54;13.80;99.90
40816;DHT22;26535;48.788;9.214;2022-10-22T05:29:21;13.80;99.90
40816;DHT22;26535;48.788;9.214;2022-10-22T05:31:47;13.80;99.90
40816;DHT22;26535;48.788;9.214;2022-10-22T05:34:13;13.80;99.90
40816;DHT22;26535;48.788;9.214;2022-10-22T05:36:39;13.80;99.90
40816;DHT22;26535;48.788;9.214;2022-10-22T05:39:05;13.90;99.90
40816;DHT22;26535;48.788;9.214;2022-10-22T05:41:32;13.80;99.90
40816;DHT22;26535;48.788;9.214;2022-10-22T05:43:58;13.80;99.90
40816;DHT22;26535;48.788;9.214;2022-10-22T05:46:27;13.80;99.90
40816;DHT22;26535;48.788;9.214;2022-10-22T05:48:56;13.90;99.90
40816;DHT22;26535;48.788;9.214;2022-10-22T05:51:23;14.00;99.90
40816;DHT22;26535;48.788;9.214;2022-10-22T05:53:53;14.10;99.90
40816;DHT22;26535;48.788;9.214;2022-10-22T05:56:20;14.10;99.90
40816;DHT22;26535;48.788;9.214;2022-10-22T05:58:46;14.20;99.90
40816;DHT22;26535;48.788;9.214;2022-10-22T06:01:18;14.20;99.90
40816;DHT22;26535;48.788;9.214;2022-10-22T06:03:45;14.20;99.90
40816;DHT22;26535;48.788;9.214;2022-10-22T06:08:50;14.20;99.90
40816;DHT22;26535;48.788;9.214;2022-10-22T06:11:18;14.20;99.90
40816;DHT22;26535;48.788;9.214;2022-10-22T06:13:45;14.20;99.90
40816;DHT22;26535;48.788;9.214;2022-10-22T06:16:11;14.10;99.90
40816;DHT22;26535;48.788;9.214;2022-10-22T06:18:37;14.10;99.90
40816;DHT22;26535;48.788;9.214;2022-10-22T06:21:11;14.10;99.90
40816;DHT22;26535;48.788;9.214;2022-10-22T06:23:38;14.20;99.90
40816;DHT22;26535;48.788;9.214;2022-10-22T06:26:05;14.20;99.90
40816;DHT22;26535;48.788;9.214;2022-10-22T06:28:31;14.10;99.90
40816;DHT22;26535;48.788;9.214;2022-10-22T06:30:58;14.10;99.90
40816;DHT22;26535;48.788;9.214;2022-10-22T06:33:25;14.20;99.90
40816;DHT22;26535;48.788;9.214;2022-10-22T06:35:51;14.20;99.90
40816;DHT22;26535;48.788;9.214;2022-10-22T06:38:17;14.30;99.90
40816;DHT22;26535;48.788;9.214;2022-10-22T06:40:43;14.30;99.90
40816;DHT22;26535;48.788;9.214;2022-10-22T06:43:13;14.40;99.90
40816;DHT22;26535;48.788;9.214;2022-10-22T06:45:39;14.50;99.90
40816;DHT22;26535;48.788;9.214;2022-10-22T06:48:05;14.50;99.90
40816;DHT22;26535;48.788;9.214;2022-10-22T06:50:33;14.60;99.90
40816;DHT22;26535;48.788;9.214;2022-10-22T06:53:00;14.60;99.90
40816;DHT22;26535;48.788;9.214;2022-10-22T06:55:25;14.60;99.90
40816;DHT22;26535;48.788;9.214;2022-10-22T06:57:51;14.60;99.90
40816;DHT22;26535;48.788;9.214;2022-10-22T07:00:17;14.60;99.90
40816;DHT22;26535;48.788;9.214;2022-10-22T07:02:43;14.60;99.90
40816;DHT22;26535;48.788;9.214;2022-10-22T07:05:09;14.60;99.90
40816;DHT22;26535;48.788;9.214;2022-10-22T07:07:37;14.60;99.90
40816;DHT22;26535;48.788;9.214;2022-10-22T07:10:06;14.60;99.90
40816;DHT22;26535;48.788;9.214;2022-10-22T07:12:34;14.70;99.90
40816;DHT22;26535;48.788;9.214;2022-10-22T07:15:00;14.70;99.90
40816;DHT22;26535;48.788;9.214;2022-10-22T07:17:29;14.80;99.90
40816;DHT22;26535;48.788;9.214;2022-10-22T07:19:55;14.80;99.90
40816;DHT22;26535;48.788;9.214;2022-10-22T07:22:20;14.80;99.90
40816;DHT22;26535;48.788;9.214;2022-10-22T07:24:46;14.90;99.90
40816;DHT22;26535;48.788;9.214;2022-10-22T07:27:12;14.90;99.90
40816;DHT22;26535;48.788;9.214;2022-10-22T07:29:37;14.90;99.90
40816;DHT22;26535;48.788;9.214;2022-10-22T07:32:03;14.90;99.90
40816;DHT22;26535;48.788;9.214;2022-10-22T07:34:29;14.90;99.90
40816;DHT22;26535;48.788;9.214;2022-10-22T07:36:55;14.90;99.90
40816;DHT22;26535;48.788;9.214;2022-10-22T07:39:22;14.90;99.90
40816;DHT22;26535;48.788;9.214;2022-10-22T07:41:47;14.90;99.90
40816;DHT22;26535;48.788;9.214;2022-10-22T07:44:13;15.00;99.90
40816;DHT22;26535;48.788;9.214;2022-10-22T07:46:39;15.00;99.90
40816;DHT22;26535;48.788;9.214;2022-10-22T07:49:04;15.00;99.90
40816;DHT22;26535;48.788;9.214;2022-10-22T07:51:30;15.00;99.90
40816;DHT22;26535;48.788;9.214;2022-10-22T07:53:56;15.10;99.90
40816;DHT22;26535;48.788;9.214;2022-10-22T07:56:21;15.10;99.90
40816;DHT22;26535;48.788;9.214;2022-10-22T07:58:47;15.10;99.90
40816;DHT22;26535;48.788;9.214;2022-10-22T08:01:13;15.10;99.90
40816;DHT22;26535;48.788;9.214;2022-10-22T08:03:39;15.20;99.90
40816;DHT22;26535;48.788;9.214;2022-10-22T08:06:05;15.30;99.90
40816;DHT22;26535;48.788;9.214;2022-10-22T08:08:30;15.40;99.90
40816;DHT22;26535;48.788;9.214;2022-10-22T08:10:58;15.40;99.90
40816;DHT22;26535;48.788;9.214;2022-10-22T08:13:25;15.50;99.90
40816;DHT22;26535;48.788;9.214;2022-10-22T08:15:52;15.60;99.90
40816;DHT22;26535;48.788;9.214;2022-10-22T08:18:17;15.60;99.90
40816;DHT22;26535;48.788;9.214;2022-10-22T08:20:43;15.70;99.90
40816;DHT22;26535;48.788;9.214;2022-10-22T08:23:09;15.80;99.90
40816;DHT22;26535;48.788;9.214;2022-10-22T08:25:35;15.90;99.90
40816;DHT22;26535;48.788;9.214;2022-10-22T08:28:01;15.80;99.90
40816;DHT22;26535;48.788;9.214;2022-10-22T08:30:26;15.70;99.90
40816;DHT22;26535;48.788;9.214;2022-10-22T08:32:54;15.70;99.90
40816;DHT22;26535;48.788;9.214;2022-10-22T08:35:20;15.70;99.90
40816;DHT22;26535;48.788;9.214;2022-10-22T08:37:46;15.60;99.90
40816;DHT22;26535;48.788;9.214;2022-10-22T08:40:23;15.70;99.90
40816;DHT22;26535;48.788;9.214;2022-10-22T08:43:02;15.70;99.90
40816;DHT22;26535;48.788;9.214;2022-10-22T08:48:42;15.90;99.90
40816;DHT22;26535;48.788;9.214;2022-10-22T08:51:16;16.00;99.90
40816;DHT22;26535;48.788;9.214;2022-10-22T08:56:23;16.00;99.90
40816;DHT22;26535;48.788;9.214;2022-10-22T08:58:55;16.10;99.90
40816;DHT22;26535;48.788;9.214;2022-10-22T09:01:36;16.20;99.90
40816;DHT22;26535;48.788;9.214;2022-10-22T09:06:41;16.40;99.90
40816;DHT22;26535;48.788;9.214;2022-10-22T09:09:14;16.50;99.90
40816;DHT22;26535;48.788;9.214;2022-10-22T09:11:45;16.70;99.90
40816;DHT22;26535;48.788;9.214;2022-10-22T09:14:22;16.80;99.90
40816;DHT22;26535;48.788;9.214;2022-10-22T09:17:08;17.00;99.90
40816;DHT22;26535;48.788;9.214;2022-10-22T09:22:47;17.30;99.90
40816;DHT22;26535;48.788;9.214;2022-10-22T09:25:22;17.50;99.90
40816;DHT22;26535;48.788;9.214;2022-10-22T09:27:49;17.60;99.90
40816;DHT22;26535;48.788;9.214;2022-10-22T09:30:18;17.60;99.90
40816;DHT22;26535;48.788;9.214;2022-10-22T09:32:45;17.70;99.90
40816;DHT22;26535;48.788;9.214;2022-10-22T09:35:12;17.80;99.90
40816;DHT22;26535;48.788;9.214;2022-10-22T09:37:48;18.00;99.90
40816;DHT22;26535;48.788;9.214;2022-10-22T09:40:15;18.10;99.90
40816;DHT22;26535;48.788;9.214;2022-10-22T09:42:43;18.20;99.90
40816;DHT22;26535;48.788;9.214;2022-10-22T09:45:20;18.30;99.90
40816;DHT22;26535;48.788;9.214;2022-10-22T09:47:47;18.30;99.90
40816;DHT22;26535;48.788;9.214;2022-10-22T09:52:45;18.40;99.90
40816;DHT22;26535;48.788;9.214;2022-10-22T09:55:18;18.50;99.90
40816;DHT22;26535;48.788;9.214;2022-10-22T09:57:52;18.60;99.90
40816;DHT22;26535;48.788;9.214;2022-10-22T10:00:19;18.70;99.90
40816;DHT22;26535;48.788;9.214;2022-10-22T10:02:45;18.70;99.90
40816;DHT22;26535;48.788;9.214;2022-10-22T10:05:18;18.80;99.90
40816;DHT22;26535;48.788;9.214;2022-10-22T10:07:44;18.90;99.90
40816;DHT22;26535;48.788;9.214;2022-10-22T10:16:41;19.20;99.90
40816;DHT22;26535;48.788;9.214;2022-10-22T10:19:06;19.30;99.90
40816;DHT22;26535;48.788;9.214;2022-10-22T10:30:17;19.90;99.90
40816;DHT22;26535;48.788;9.214;2022-10-22T10:33:10;20.00;99.90
40816;DHT22;26535;48.788;9.214;2022-10-22T10:35:57;20.20;99.90
40816;DHT22;26535;48.788;9.214;2022-10-22T10:38:37;20.50;99.90
40816;DHT22;26535;48.788;9.214;2022-10-22T10:41:22;20.90;99.90
40816;DHT22;26535;48.788;9.214;2022-10-22T10:49:09;22.00;99.70
40816;DHT22;26535;48.788;9.214;2022-10-22T11:00:04;22.90;97.40
40816;DHT22;26535;48.788;9.214;2022-10-22T11:02:42;23.80;96.20
40816;DHT22;26535;48.788;9.214;2022-10-22T11:07:50;25.80;92.90
40816;DHT22;26535;48.788;9.214;2022-10-22T11:10:39;26.00;91.90
40816;DHT22;26535;48.788;9.214;2022-10-22T11:13:33;25.70;91.00
40816;DHT22;26535;48.788;9.214;2022-10-22T11:19:11;24.40;91.80
40816;DHT22;26535;48.788;9.214;2022-10-22T11:21:58;25.00;91.80
40816;DHT22;26535;48.788;9.214;2022-10-22T11:29:51;28.00;85.70
40816;DHT22;26535;48.788;9.214;2022-10-22T11:32:20;28.30;83.80
40816;DHT22;26535;48.788;9.214;2022-10-22T11:34:54;27.60;81.90
40816;DHT22;26535;48.788;9.214;2022-10-22T11:37:23;28.40;81.80
40816;DHT22;26535;48.788;9.214;2022-10-22T11:39:53;29.60;76.90
40816;DHT22;26535;48.788;9.214;2022-10-22T11:42:22;30.30;75.40
40816;DHT22;26535;48.788;9.214;2022-10-22T11:45:27;31.70;74.10
40816;DHT22;26535;48.788;9.214;2022-10-22T12:00:55;31.70;68.00
40816;DHT22;26535;48.788;9.214;2022-10-22T12:16:42;31.30;65.10
40816;DHT22;26535;48.788;9.214;2022-10-22T12:19:12;29.40;67.10
40816;DHT22;26535;48.788;9.214;2022-10-22T12:21:41;28.20;70.80
40816;DHT22;26535;48.788;9.214;2022-10-22T12:24:13;27.10;72.50
40816;DHT22;26535;48.788;9.214;2022-10-22T12:26:39;26.40;73.50
40816;DHT22;26535;48.788;9.214;2022-10-22T12:29:10;25.90;75.60
40816;DHT22;26535;48.788;9.214;2022-10-22T12:31:39;25.30;76.50
40816;DHT22;26535;48.788;9.214;2022-10-22T12:34:05;24.90;76.30
40816;DHT22;26535;48.788;9.214;2022-10-22T12:36:33;25.50;77.30
40816;DHT22;26535;48.788;9.214;2022-10-22T12:39:08;27.60;76.30
40816;DHT22;26535;48.788;9.214;2022-10-22T12:41:36;29.30;70.70
40816;DHT22;26535;48.788;9.214;2022-10-22T12:44:04;31.40;68.00
40816;DHT22;26535;48.788;9.214;2022-10-22T12:46:32;32.80;64.80
40816;DHT22;26535;48.788;9.214;2022-10-22T12:49:03;34.20;61.80
40816;DHT22;26535;48.788;9.214;2022-10-22T12:51:30;35.50;60.20
40816;DHT22;26535;48.788;9.214;2022-10-22T12:54:01;36.50;57.40
40816;DHT22;26535;48.788;9.214;2022-10-22T12:56:31;37.10;55.30
40816;DHT22;26535;48.788;9.214;2022-10-22T12:59:00;37.50;55.00
40816;DHT22;26535;48.788;9.214;2022-10-22T13:01:31;37.80;54.90
40816;DHT22;26535;48.788;9.214;2022-10-22T13:06:50;38.50;53.80
40816;DHT22;26535;48.788;9.214;2022-10-22T13:09:21;38.00;52.70
40816;DHT22;26535;48.788;9.214;2022-10-22T13:11:53;38.10;53.70
40816;DHT22;26535;48.788;9.214;2022-10-22T13:14:30;38.30;54.10
40816;DHT22;26535;48.788;9.214;2022-10-22T13:22:25;37.00;52.20
40816;DHT22;26535;48.788;9.214;2022-10-22T13:24:51;36.10;54.50
40816;DHT22;26535;48.788;9.214;2022-10-22T13:27:17;35.30;55.30
40816;DHT22;26535;48.788;9.214;2022-10-22T13:29:43;34.30;54.50
40816;DHT22;26535;48.788;9.214;2022-10-22T13:32:26;33.50;55.10
40816;DHT22;26535;48.788;9.214;2022-10-22T13:34:52;33.10;56.10
40816;DHT22;26535;48.788;9.214;2022-10-22T13:37:18;32.80;56.00
40816;DHT22;26535;48.788;9.214;2022-10-22T13:39:43;32.60;55.30
40816;DHT22;26535;48.788;9.214;2022-10-22T13:42:12;32.30;55.10
40816;DHT22;26535;48.788;9.214;2022-10-22T13:44:38;32.10;55.70
40816;DHT22;26535;48.788;9.214;2022-10-22T13:47:20;32.10;55.70
40816;DHT22;26535;48.788;9.214;2022-10-22T13:49:48;32.00;59.00
40816;DHT22;26535;48.788;9.214;2022-10-22T13:52:24;32.10;56.20
40816;DHT22;26535;48.788;9.214;2022-10-22T13:54:51;32.80;55.80
40816;DHT22;26535;48.788;9.214;2022-10-22T13:57:17;33.00;54.60
40816;DHT22;26535;48.788;9.214;2022-10-22T13:59:43;34.20;56.30
40816;DHT22;26535;48.788;9.214;2022-10-22T14:02:11;34.10;53.20
40816;DHT22;26535;48.788;9.214;2022-10-22T14:04:39;33.80;58.00
40816;DHT22;26535;48.788;9.214;2022-10-22T14:07:15;33.30;53.90
40816;DHT22;26535;48.788;9.214;2022-10-22T14:09:41;34.10;55.70
40816;DHT22;26535;48.788;9.214;2022-10-22T14:12:12;34.20;52.60
40816;DHT22;26535;48.788;9.214;2022-10-22T14:14:39;33.10;53.70
40816;DHT22;26535;48.788;9.214;2022-10-22T14:17:05;32.70;54.40
40816;DHT22;26535;48.788;9.214;2022-10-22T14:19:33;32.60;54.00
40816;DHT22;26535;48.788;9.214;2022-10-22T14:21:59;31.90;60.50
40816;DHT22;26535;48.788;9.214;2022-10-22T14:24:24;31.30;56.40
40816;DHT22;26535;48.788;9.214;2022-10-22T14:26:50;31.20;59.30
40816;DHT22;26535;48.788;9.214;2022-10-22T14:29:16;31.60;57.00
40816;DHT22;26535;48.788;9.214;2022-10-22T14:31:42;31.70;62.00
40816;DHT22;26535;48.788;9.214;2022-10-22T14:34:12;30.80;57.70
40816;DHT22;26535;48.788;9.214;2022-10-22T14:36:39;29.40;59.50
40816;DHT22;26535;48.788;9.214;2022-10-22T14:39:04;28.30;62.90
40816;DHT22;26535;48.788;9.214;2022-10-22T14:41:30;27.50;62.20
40816;DHT22;26535;48.788;9.214;2022-10-22T14:43:56;26.40;64.20
40816;DHT22;26535;48.788;9.214;2022-10-22T14:46:24;25.70;67.40
40816;DHT22;26535;48.788;9.214;2022-10-22T14:48:49;25.50;69.10
40816;DHT22;26535;48.788;9.214;2022-10-22T14:51:18;24.80;68.10
40816;DHT22;26535;48.788;9.214;2022-10-22T14:53:45;24.20;69.90
40816;DHT22;26535;48.788;9.214;2022-10-22T14:56:13;24.10;71.40
40816;DHT22;26535;48.788;9.214;2022-10-22T14:58:39;24.30;72.30
40816;DHT22;26535;48.788;9.214;2022-10-22T15:01:05;24.20;72.70
40816;DHT22;26535;48.788;9.214;2022-10-22T15:03:31;23.90;74.10
40816;DHT22;26535;48.788;9.214;2022-10-22T15:05:57;24.10;73.70
40816;DHT22;26535;48.788;9.214;2022-10-22T15:08:23;24.70;72.00
40816;DHT22;26535;48.788;9.214;2022-10-22T15:11:06;25.10;71.10
40816;DHT22;26535;48.788;9.214;2022-10-22T15:13:33;25.30;72.60
40816;DHT22;26535;48.788;9.214;2022-10-22T15:15:59;25.70;72.30
40816;DHT22;26535;48.788;9.214;2022-10-22T15:18:26;25.90;71.60
40816;DHT22;26535;48.788;9.214;2022-10-22T15:21:00;26.30;68.40
40816;DHT22;26535;48.788;9.214;2022-10-22T15:23:26;26.70;68.80
40816;DHT22;26535;48.788;9.214;2022-10-22T15:25:52;27.00;67.40
40816;DHT22;26535;48.788;9.214;2022-10-22T15:28:18;27.20;65.60
40816;DHT22;26535;48.788;9.214;2022-10-22T15:30:44;26.80;66.70
40816;DHT22;26535;48.788;9.214;2022-10-22T15:33:10;26.70;67.20
40816;DHT22;26535;48.788;9.214;2022-10-22T15:35:35;26.90;67.40
40816;DHT22;26535;48.788;9.214;2022-10-22T15:38:01;26.80;66.80
40816;DHT22;26535;48.788;9.214;2022-10-22T15:40:27;26.10;68.50
40816;DHT22;26535;48.788;9.214;2022-10-22T15:42:53;25.30;69.50
40816;DHT22;26535;48.788;9.214;2022-10-22T15:45:18;24.60;72.00
40816;DHT22;26535;48.788;9.214;2022-10-22T15:47:46;23.70;74.20
40816;DHT22;26535;48.788;9.214;2022-10-22T15:50:12;23.10;76.10
40816;DHT22;26535;48.788;9.214;2022-10-22T15:52:38;22.50;79.30
40816;DHT22;26535;48.788;9.214;2022-10-22T15:55:04;22.10;79.70
40816;DHT22;26535;48.788;9.214;2022-10-22T15:57:35;21.70;81.30
40816;DHT22;26535;48.788;9.214;2022-10-22T16:00:03;21.30;82.70
40816;DHT22;26535;48.788;9.214;2022-10-22T16:02:38;20.90;83.90
40816;DHT22;26535;48.788;9.214;2022-10-22T16:05:04;20.60;85.00
40816;DHT22;26535;48.788;9.214;2022-10-22T16:07:30;20.30;86.50
40816;DHT22;26535;48.788;9.214;2022-10-22T16:09:57;20.10;86.60
40816;DHT22;26535;48.788;9.214;2022-10-22T16:12:23;19.90;88.80
40816;DHT22;26535;48.788;9.214;2022-10-22T16:14:49;19.70;90.50
40816;DHT22;26535;48.788;9.214;2022-10-22T16:17:15;19.60;91.40
40816;DHT22;26535;48.788;9.214;2022-10-22T16:19:41;19.50;91.10
40816;DHT22;26535;48.788;9.214;2022-10-22T16:22:08;19.40;91.80
40816;DHT22;26535;48.788;9.214;2022-10-22T16:24:36;19.30;91.10
40816;DHT22;26535;48.788;9.214;2022-10-22T16:27:06;19.30;91.70
40816;DHT22;26535;48.788;9.214;2022-10-22T16:29:32;19.20;91.50
40816;DHT22;26535;48.788;9.214;2022-10-22T16:31:57;19.00;91.40
40816;DHT22;26535;48.788;9.214;2022-10-22T16:34:25;18.80;92.90
40816;DHT22;26535;48.788;9.214;2022-10-22T16:36:51;18.80;92.80
40816;DHT22;26535;48.788;9.214;2022-10-22T16:39:18;18.70;92.80
40816;DHT22;26535;48.788;9.214;2022-10-22T16:41:43;18.60;92.00
40816;DHT22;26535;48.788;9.214;2022-10-22T16:44:09;18.50;93.40
40816;DHT22;26535;48.788;9.214;2022-10-22T16:46:36;18.50;93.00
40816;DHT22;26535;48.788;9.214;2022-10-22T16:49:03;18.40;92.90
40816;DHT22;26535;48.788;9.214;2022-10-22T16:51:29;18.30;92.60
40816;DHT22;26535;48.788;9.214;2022-10-22T16:53:56;18.20;92.60
40816;DHT22;26535;48.788;9.214;2022-10-22T16:56:22;18.10;92.50
40816;DHT22;26535;48.788;9.214;2022-10-22T16:58:51;18.00;92.70
40816;DHT22;26535;48.788;9.214;2022-10-22T17:01:18;18.00;93.30
40816;DHT22;26535;48.788;9.214;2022-10-22T17:03:45;18.00;93.20
40816;DHT22;26535;48.788;9.214;2022-10-22T17:06:13;17.90;93.80
40816;DHT22;26535;48.788;9.214;2022-10-22T17:08:46;17.90;94.20
40816;DHT22;26535;48.788;9.214;2022-10-22T17:11:17;17.80;93.90
40816;DHT22;26535;48.788;9.214;2022-10-22T17:13:45;17.70;95.40
40816;DHT22;26535;48.788;9.214;2022-10-22T17:16:16;17.70;95.30
40816;DHT22;26535;48.788;9.214;2022-10-22T17:18:43;17.50;96.50
40816;DHT22;26535;48.788;9.214;2022-10-22T17:21:11;17.50;96.60
40816;DHT22;26535;48.788;9.214;2022-10-22T17:23:37;17.40;97.30
40816;DHT22;26535;48.788;9.214;2022-10-22T17:26:05;17.30;97.50
40816;DHT22;26535;48.788;9.214;2022-10-22T17:28:32;17.20;98.30
40816;DHT22;26535;48.788;9.214;2022-10-22T17:31:31;17.20;97.60
40816;DHT22;26535;48.788;9.214;2022-10-22T17:33:58;17.00;98.90
40816;DHT22;26535;48.788;9.214;2022-10-22T17:36:25;16.80;99.20
40816;DHT22;26535;48.788;9.214;2022-10-22T17:38:55;16.80;99.90
40816;DHT22;26535;48.788;9.214;2022-10-22T17:41:30;16.70;99.90
40816;DHT22;26535;48.788;9.214;2022-10-22T17:43:59;16.60;99.90
40816;DHT22;26535;48.788;9.214;2022-10-22T17:46:29;16.60;99.90
40816;DHT22;26535;48.788;9.214;2022-10-22T17:49:07;16.50;99.90
40816;DHT22;26535;48.788;9.214;2022-10-22T17:51:36;16.40;99.90
40816;DHT22;26535;48.788;9.214;2022-10-22T17:54:02;16.40;99.90
40816;DHT22;26535;48.788;9.214;2022-10-22T17:56:28;16.20;99.90
40816;DHT22;26535;48.788;9.214;2022-10-22T17:58:54;16.20;99.90
40816;DHT22;26535;48.788;9.214;2022-10-22T18:04:14;16.00;99.90
40816;DHT22;26535;48.788;9.214;2022-10-22T18:06:40;16.00;99.90
40816;DHT22;26535;48.788;9.214;2022-10-22T18:09:10;16.00;99.90
40816;DHT22;26535;48.788;9.214;2022-10-22T18:11:36;15.80;99.90
40816;DHT22;26535;48.788;9.214;2022-10-22T18:14:03;15.70;99.90
40816;DHT22;26535;48.788;9.214;2022-10-22T18:16:29;15.60;99.90
40816;DHT22;26535;48.788;9.214;2022-10-22T18:18:57;15.50;99.90
40816;DHT22;26535;48.788;9.214;2022-10-22T18:21:25;15.40;99.90
40816;DHT22;26535;48.788;9.214;2022-10-22T18:23:52;15.50;99.90
40816;DHT22;26535;48.788;9.214;2022-10-22T18:26:18;15.40;99.90
40816;DHT22;26535;48.788;9.214;2022-10-22T18:28:47;15.30;99.90
40816;DHT22;26535;48.788;9.214;2022-10-22T18:31:18;15.20;99.90
40816;DHT22;26535;48.788;9.214;2022-10-22T18:33:45;15.10;99.90
40816;DHT22;26535;48.788;9.214;2022-10-22T18:36:14;15.20;99.90
40816;DHT22;26535;48.788;9.214;2022-10-22T18:38:53;15.10;99.90
40816;DHT22;26535;48.788;9.214;2022-10-22T18:41:26;15.10;99.90
40816;DHT22;26535;48.788;9.214;2022-10-22T18:44:03;15.10;99.90
40816;DHT22;26535;48.788;9.214;2022-10-22T18:46:30;15.10;99.90
40816;DHT22;26535;48.788;9.214;2022-10-22T18:48:57;15.00;99.90
40816;DHT22;26535;48.788;9.214;2022-10-22T18:51:24;14.90;99.90
40816;DHT22;26535;48.788;9.214;2022-10-22T18:53:51;14.80;99.90
40816;DHT22;26535;48.788;9.214;2022-10-22T18:56:17;14.80;99.90
40816;DHT22;26535;48.788;9.214;2022-10-22T18:58:45;14.90;99.90
40816;DHT22;26535;48.788;9.214;2022-10-22T19:01:20;14.90;99.90
40816;DHT22;26535;48.788;9.214;2022-10-22T19:03:46;14.80;99.90
40816;DHT22;26535;48.788;9.214;2022-10-22T19:06:13;14.90;99.90
40816;DHT22;26535;48.788;9.214;2022-10-22T19:08:43;14.80;99.90
40816;DHT22;26535;48.788;9.214;2022-10-22T19:11:11;14.90;99.90
40816;DHT22;26535;48.788;9.214;2022-10-22T19:13:40;14.80;99.90
40816;DHT22;26535;48.788;9.214;2022-10-22T19:16:14;14.80;99.90
40816;DHT22;26535;48.788;9.214;2022-10-22T19:18:41;14.80;99.90
40816;DHT22;26535;48.788;9.214;2022-10-22T19:21:06;14.70;99.90
40816;DHT22;26535;48.788;9.214;2022-10-22T19:23:32;14.70;99.90
40816;DHT22;26535;48.788;9.214;2022-10-22T19:26:07;14.70;99.90
40816;DHT22;26535;48.788;9.214;2022-10-22T19:28:37;14.70;99.90
40816;DHT22;26535;48.788;9.214;2022-10-22T19:31:07;14.70;99.90
40816;DHT22;26535;48.788;9.214;2022-10-22T19:33:35;14.70;99.90
40816;DHT22;26535;48.788;9.214;2022-10-22T19:36:05;14.70;99.90
40816;DHT22;26535;48.788;9.214;2022-10-22T19:38:31;14.70;99.90
40816;DHT22;26535;48.788;9.214;2022-10-22T19:40:57;14.60;99.90
40816;DHT22;26535;48.788;9.214;2022-10-22T19:43:23;14.60;99.90
40816;DHT22;26535;48.788;9.214;2022-10-22T19:45:49;14.60;99.90
40816;DHT22;26535;48.788;9.214;2022-10-22T19:48:15;14.50;99.90
40816;DHT22;26535;48.788;9.214;2022-10-22T19:50:47;14.50;99.90
40816;DHT22;26535;48.788;9.214;2022-10-22T19:53:13;14.50;99.90
40816;DHT22;26535;48.788;9.214;2022-10-22T19:55:44;14.40;99.90
40816;DHT22;26535;48.788;9.214;2022-10-22T19:58:11;14.40;99.90
40816;DHT22;26535;48.788;9.214;2022-10-22T20:00:37;14.40;99.90
40816;DHT22;26535;48.788;9.214;2022-10-22T20:03:03;14.40;99.90
40816;DHT22;26535;48.788;9.214;2022-10-22T20:05:31;14.40;99.90
40816;DHT22;26535;48.788;9.214;2022-10-22T20:07:58;14.40;99.90
40816;DHT22;26535;48.788;9.214;2022-10-22T20:10:23;14.30;99.90
40816;DHT22;26535;48.788;9.214;2022-10-22T20:12:49;14.20;99.90
40816;DHT22;26535;48.788;9.214;2022-10-22T20:15:16;14.20;99.90
40816;DHT22;26535;48.788;9.214;2022-10-22T20:17:43;14.20;99.90
40816;DHT22;26535;48.788;9.214;2022-10-22T20:20:09;14.20;99.90
40816;DHT22;26535;48.788;9.214;2022-10-22T20:22:35;14.20;99.90
40816;DHT22;26535;48.788;9.214;2022-10-22T20:25:00;14.20;99.90
40816;DHT22;26535;48.788;9.214;2022-10-22T20:27:26;14.20;99.90
40816;DHT22;26535;48.788;9.214;2022-10-22T20:29:52;14.20;99.90
40816;DHT22;26535;48.788;9.214;2022-10-22T20:32:17;14.20;99.90
40816;DHT22;26535;48.788;9.214;2022-10-22T20:34:43;14.20;99.90
40816;DHT22;26535;48.788;9.214;2022-10-22T20:37:15;14.10;99.90
40816;DHT22;26535;48.788;9.214;2022-10-22T20:39:40;14.10;99.90
40816;DHT22;26535;48.788;9.214;2022-10-22T20:42:06;14.10;99.90
40816;DHT22;26535;48.788;9.214;2022-10-22T20:44:35;14.10;99.90
40816;DHT22;26535;48.788;9.214;2022-10-22T20:47:00;14.00;99.90
40816;DHT22;26535;48.788;9.214;2022-10-22T20:49:26;14.00;99.90
40816;DHT22;26535;48.788;9.214;2022-10-22T20:51:52;13.90;99.90
40816;DHT22;26535;48.788;9.214;2022-10-22T20:54:17;13.90;99.90
40816;DHT22;26535;48.788;9.214;2022-10-22T20:56:44;13.90;99.90
40816;DHT22;26535;48.788;9.214;2022-10-22T20:59:12;13.90;99.90
40816;DHT22;26535;48.788;9.214;2022-10-22T21:01:43;13.80;99.90
40816;DHT22;26535;48.788;9.214;2022-10-22T21:04:10;13.70;99.90
40816;DHT22;26535;48.788;9.214;2022-10-22T21:06:37;13.70;99.90
40816;DHT22;26535;48.788;9.214;2022-10-22T21:09:12;13.70;99.90
40816;DHT22;26535;48.788;9.214;2022-10-22T21:11:38;13.70;99.90
40816;DHT22;26535;48.788;9.214;2022-10-22T21:14:06;13.60;99.90
40816;DHT22;26535;48.788;9.214;2022-10-22T21:16:33;13.50;99.90
40816;DHT22;26535;48.788;9.214;2022-10-22T21:18:59;13.50;99.90
40816;DHT22;26535;48.788;9.214;2022-10-22T21:21:24;13.40;99.90
40816;DHT22;26535;48.788;9.214;2022-10-22T21:23:50;13.40;99.90
40816;DHT22;26535;48.788;9.214;2022-10-22T21:26:17;13.30;99.90
40816;DHT22;26535;48.788;9.214;2022-10-22T21:28:43;13.30;99.90
40816;DHT22;26535;48.788;9.214;2022-10-22T21:31:10;13.30;99.90
40816;DHT22;26535;48.788;9.214;2022-10-22T21:33:43;13.20;99.90
40816;DHT22;26535;48.788;9.214;2022-10-22T21:36:09;13.10;99.90
40816;DHT22;26535;48.788;9.214;2022-10-22T21:38:36;13.10;99.90
40816;DHT22;26535;48.788;9.214;2022-10-22T21:41:10;13.10;99.90
40816;DHT22;26535;48.788;9.214;2022-10-22T21:43:38;13.00;99.90
40816;DHT22;26535;48.788;9.214;2022-10-22T21:46:24;13.00;99.90
40816;DHT22;26535;48.788;9.214;2022-10-22T21:48:58;13.00;99.90
40816;DHT22;26535;48.788;9.214;2022-10-22T21:51:26;12.90;99.90
40816;DHT22;26535;48.788;9.214;2022-10-22T21:53:52;12.90;99.90
40816;DHT22;26535;48.788;9.214;2022-10-22T21:56:24;12.90;99.90
40816;DHT22;26535;48.788;9.214;2022-10-22T21:58:51;12.80;99.90
40816;DHT22;26535;48.788;9.214;2022-10-22T22:01:17;12.80;99.90
40816;DHT22;26535;48.788;9.214;2022-10-22T22:03:49;12.70;99.90
40816;DHT22;26535;48.788;9.214;2022-10-22T22:06:16;12.70;99.90
40816;DHT22;26535;48.788;9.214;2022-10-22T22:08:42;12.60;99.90
40816;DHT22;26535;48.788;9.214;2022-10-22T22:11:10;12.60;99.90
40816;DHT22;26535;48.788;9.214;2022-10-22T22:13:36;12.60;99.90